createdAt,value
2017-10-15T00:01:04.121Z,99148.28
2017-10-15T00:03:31.633Z,99159.85
2017-10-15T00:05:59.151Z,99158.83
2017-10-15T00:08:26.652Z,99170.23
2017-10-15T00:10:54.168Z,99163.55
2017-10-15T00:13:21.677Z,99162.19
2017-10-15T00:15:49.188Z,99161.00
2017-10-15T00:18:16.710Z,99159.48
2017-10-15T00:20:44.227Z,99156.61
2017-10-15T00:23:11.744Z,99169.83
2017-10-15T00:25:39.253Z,99154.71
2017-10-15T00:28:06.749Z,99148.59
2017-10-15T00:30:34.263Z,99152.08
2017-10-15T00:33:01.792Z,99151.68
2017-10-15T00:35:29.315Z,99146.41
2017-10-15T00:37:56.822Z,99146.80
2017-10-15T00:40:24.367Z,99137.02
2017-10-15T00:42:51.867Z,99141.89
2017-10-15T00:45:19.388Z,99143.02
2017-10-15T00:47:46.885Z,99140.74
2017-10-15T00:50:14.423Z,99141.39
2017-10-15T00:52:41.920Z,99140.52
2017-10-15T00:55:09.489Z,99137.54
2017-10-15T00:57:37.044Z,99133.69
2017-10-15T01:00:04.551Z,99144.98
2017-10-15T01:02:32.064Z,99139.94
2017-10-15T01:04:59.606Z,99135.19
2017-10-15T01:07:27.122Z,99133.33
2017-10-15T01:09:54.634Z,99135.44
2017-10-15T01:12:22.144Z,99135.84
2017-10-15T01:14:49.650Z,99138.76
2017-10-15T01:17:17.139Z,99136.38
2017-10-15T01:19:44.655Z,99133.55
2017-10-15T01:22:12.167Z,99134.92
2017-10-15T01:24:39.679Z,99128.91
2017-10-15T01:27:07.185Z,99136.21
2017-10-15T01:29:34.698Z,99131.91
2017-10-15T01:32:02.216Z,99129.41
2017-10-15T01:34:29.739Z,99132.22
2017-10-15T01:36:57.238Z,99125.55
2017-10-15T01:39:24.759Z,99124.27
2017-10-15T01:41:52.280Z,99123.23
2017-10-15T01:44:19.780Z,99123.75
2017-10-15T01:46:47.265Z,99119.20
2017-10-15T01:49:14.765Z,99115.50
2017-10-15T01:51:42.275Z,99116.42
2017-10-15T01:54:09.784Z,99109.06
2017-10-15T01:56:37.330Z,99117.39
2017-10-15T01:59:04.834Z,99116.56
2017-10-15T02:01:32.343Z,99109.15
2017-10-15T02:03:59.855Z,99117.72
2017-10-15T02:06:27.375Z,99115.06
2017-10-15T02:08:54.871Z,99111.38
2017-10-15T02:11:22.372Z,99108.41
2017-10-15T02:13:49.868Z,99110.65
2017-10-15T02:16:17.363Z,99114.08
2017-10-15T02:18:44.868Z,99111.36
2017-10-15T02:21:12.368Z,99114.80
2017-10-15T02:23:39.875Z,99107.69
2017-10-15T02:26:07.375Z,99112.39
2017-10-15T02:28:34.898Z,99107.84
2017-10-15T02:31:02.389Z,99115.66
2017-10-15T02:33:29.901Z,99111.77
2017-10-15T02:35:57.399Z,99107.67
2017-10-15T02:38:24.912Z,99109.20
2017-10-15T02:40:52.425Z,99112.49
2017-10-15T02:43:19.933Z,99103.25
2017-10-15T02:45:47.440Z,99112.07
2017-10-15T02:48:14.977Z,99109.70
2017-10-15T02:50:42.473Z,99112.83
2017-10-15T02:53:09.967Z,99108.23
2017-10-15T02:55:37.473Z,99114.02
2017-10-15T02:58:04.988Z,99112.03
2017-10-15T03:00:32.504Z,99108.05
2017-10-15T03:03:00.002Z,99109.66
2017-10-15T03:05:27.510Z,99114.39
2017-10-15T03:07:55.014Z,99107.44
2017-10-15T03:10:22.508Z,99109.99
2017-10-15T03:12:50.001Z,99109.78
2017-10-15T03:15:17.539Z,99115.88
2017-10-15T03:17:45.051Z,99114.00
2017-10-15T03:20:12.571Z,99113.12
2017-10-15T03:22:40.078Z,99104.75
2017-10-15T03:25:07.582Z,99112.50
2017-10-15T03:27:35.108Z,99104.28
2017-10-15T03:30:02.607Z,99113.84
2017-10-15T03:32:30.130Z,99111.20
2017-10-15T03:34:57.635Z,99117.50
2017-10-15T03:37:25.144Z,99111.16
2017-10-15T03:39:52.647Z,99113.45
2017-10-15T03:42:20.157Z,99110.64
2017-10-15T03:44:47.667Z,99111.47
2017-10-15T03:47:15.166Z,99110.72
2017-10-15T03:49:42.681Z,99103.72
2017-10-15T03:58:56.538Z,99118.14
2017-10-15T04:01:24.091Z,99112.16
2017-10-15T04:03:51.606Z,99112.61
2017-10-15T04:06:19.114Z,99113.50
2017-10-15T04:08:46.629Z,99114.97
2017-10-15T04:11:14.132Z,99110.08
2017-10-15T04:13:41.630Z,99113.27
2017-10-15T04:16:09.135Z,99117.81
2017-10-15T04:18:36.634Z,99115.57
2017-10-15T04:21:04.157Z,99111.37
2017-10-15T04:23:31.656Z,99109.60
2017-10-15T04:25:59.201Z,99109.23
2017-10-15T04:28:26.711Z,99104.69
2017-10-15T04:30:54.231Z,99107.88
2017-10-15T04:33:21.739Z,99106.17
2017-10-15T04:35:49.252Z,99104.33
2017-10-15T04:38:16.776Z,99114.36
2017-10-15T04:40:44.276Z,99108.13
2017-10-15T04:43:11.775Z,99098.24
2017-10-15T04:45:39.316Z,99108.74
2017-10-15T04:48:06.828Z,99107.11
2017-10-15T04:50:34.343Z,99105.04
2017-10-15T04:53:01.874Z,99104.64
2017-10-15T04:55:29.373Z,99099.22
2017-10-15T04:57:56.885Z,99097.77
2017-10-15T05:00:24.396Z,99097.69
2017-10-15T05:02:51.909Z,99100.03
2017-10-15T05:05:19.419Z,99095.27
2017-10-15T05:07:46.921Z,99095.20
2017-10-15T05:10:14.437Z,99094.14
2017-10-15T05:12:41.976Z,99095.72
2017-10-15T05:15:09.517Z,99095.00
2017-10-15T05:17:37.050Z,99090.62
2017-10-15T05:20:04.567Z,99095.06
2017-10-15T05:22:32.087Z,99091.60
2017-10-15T05:24:59.602Z,99096.61
2017-10-15T05:27:27.124Z,99093.34
2017-10-15T05:29:54.647Z,99090.88
2017-10-15T05:32:22.175Z,99086.58
2017-10-15T05:34:49.692Z,99089.86
2017-10-15T05:37:17.210Z,99085.31
2017-10-15T05:39:44.719Z,99085.72
2017-10-15T05:42:12.228Z,99078.84
2017-10-15T05:44:39.738Z,99086.17
2017-10-15T05:47:07.250Z,99087.47
2017-10-15T05:49:34.773Z,99086.44
2017-10-15T05:52:02.286Z,99082.72
2017-10-15T05:54:29.817Z,99079.67
2017-10-15T05:56:57.325Z,99084.99
2017-10-15T05:59:24.850Z,99090.09
2017-10-15T06:01:52.368Z,99090.92
2017-10-15T06:04:19.895Z,99090.70
2017-10-15T06:06:47.410Z,99090.20
2017-10-15T06:09:14.937Z,99088.41
2017-10-15T06:11:42.451Z,99089.99
2017-10-15T06:14:09.966Z,99092.52
2017-10-15T06:16:37.465Z,99103.05
2017-10-15T06:19:04.980Z,99102.75
2017-10-15T06:21:32.484Z,99097.59
2017-10-15T06:23:59.980Z,99099.80
2017-10-15T06:26:27.485Z,99094.61
2017-10-15T06:28:55.012Z,99094.17
2017-10-15T06:31:22.539Z,99099.20
2017-10-15T06:33:50.043Z,99093.57
2017-10-15T06:36:17.547Z,99099.20
2017-10-15T06:38:45.054Z,99100.41
2017-10-15T06:41:12.569Z,99096.34
2017-10-15T06:43:40.083Z,99103.86
2017-10-15T06:46:07.582Z,99102.72
2017-10-15T06:48:35.093Z,99100.09
2017-10-15T06:51:02.607Z,99103.63
2017-10-15T06:53:30.123Z,99106.38
2017-10-15T06:55:57.639Z,99107.20
2017-10-15T06:58:25.163Z,99115.95
2017-10-15T07:00:52.690Z,99111.67
2017-10-15T07:03:20.200Z,99115.27
2017-10-15T07:05:47.708Z,99116.59
2017-10-15T07:08:15.231Z,99116.09
2017-10-15T07:10:42.777Z,99112.79
2017-10-15T07:13:10.319Z,99120.61
2017-10-15T07:15:37.890Z,99121.77
2017-10-15T07:18:05.400Z,99117.78
2017-10-15T07:20:32.958Z,99128.37
2017-10-15T07:23:00.456Z,99124.52
2017-10-15T07:25:27.959Z,99120.38
2017-10-15T07:27:55.479Z,99126.31
2017-10-15T07:30:23.002Z,99124.20
2017-10-15T07:32:50.530Z,99127.11
2017-10-15T07:35:18.047Z,99127.55
2017-10-15T07:37:45.608Z,99123.52
2017-10-15T07:40:13.112Z,99130.22
2017-10-15T07:42:40.623Z,99132.05
2017-10-15T07:45:08.127Z,99134.03
2017-10-15T07:47:35.696Z,99131.25
2017-10-15T07:50:03.215Z,99135.86
2017-10-15T07:52:30.733Z,99137.89
2017-10-15T07:54:58.232Z,99129.20
2017-10-15T07:57:25.731Z,99135.08
2017-10-15T07:59:53.246Z,99139.40
2017-10-15T08:02:20.745Z,99136.36
2017-10-15T08:04:48.252Z,99135.77
2017-10-15T08:07:15.740Z,99140.56
2017-10-15T08:09:43.242Z,99146.43
2017-10-15T08:12:10.780Z,99148.15
2017-10-15T08:14:38.300Z,99144.02
2017-10-15T08:17:05.840Z,99144.14
2017-10-15T08:19:33.344Z,99138.09
2017-10-15T08:22:00.862Z,99145.08
2017-10-15T08:24:28.422Z,99140.25
2017-10-15T08:26:55.931Z,99134.05
2017-10-15T08:29:23.461Z,99134.36
2017-10-15T08:31:50.979Z,99139.80
2017-10-15T08:34:18.487Z,99141.00
2017-10-15T08:36:46.004Z,99132.20
2017-10-15T08:39:13.521Z,99132.05
2017-10-15T08:41:41.042Z,99139.76
2017-10-15T08:44:08.558Z,99129.03
2017-10-15T08:46:36.107Z,99133.14
2017-10-15T08:49:03.612Z,99136.62
2017-10-15T08:51:31.116Z,99142.88
2017-10-15T08:53:58.642Z,99145.53
2017-10-15T08:56:26.174Z,99138.34
2017-10-15T08:58:53.780Z,99138.70
2017-10-15T09:01:21.279Z,99132.59
2017-10-15T09:03:48.784Z,99137.71
2017-10-15T09:06:16.286Z,99140.57
2017-10-15T09:08:43.787Z,99139.54
2017-10-15T09:11:11.312Z,99133.98
2017-10-15T09:13:38.838Z,99139.46
2017-10-15T09:16:06.369Z,99139.35
2017-10-15T09:18:33.893Z,99130.83
2017-10-15T09:21:01.416Z,99138.20
2017-10-15T09:23:28.930Z,99138.07
2017-10-15T09:25:56.460Z,99137.70
2017-10-15T09:28:23.966Z,99138.81
2017-10-15T09:30:51.510Z,99139.20
2017-10-15T09:33:19.049Z,99134.88
2017-10-15T09:35:46.610Z,99139.70
2017-10-15T09:38:14.196Z,99133.29
2017-10-15T09:40:41.730Z,99133.48
2017-10-15T09:43:09.243Z,99127.84
2017-10-15T09:45:36.767Z,99132.67
2017-10-15T09:48:04.279Z,99125.43
2017-10-15T09:50:31.786Z,99119.37
2017-10-15T09:52:59.326Z,99119.53
2017-10-15T09:55:26.840Z,99125.70
2017-10-15T09:57:54.363Z,99114.45
2017-10-15T10:00:21.864Z,99111.07
2017-10-15T10:02:49.398Z,99121.47
2017-10-15T10:05:16.918Z,99117.45
2017-10-15T10:07:44.417Z,99117.17
2017-10-15T10:10:11.943Z,99110.41
2017-10-15T10:12:39.479Z,99109.55
2017-10-15T10:15:07.006Z,99104.09
2017-10-15T10:17:34.519Z,99106.95
2017-10-15T10:20:02.027Z,99103.17
2017-10-15T10:22:29.596Z,99108.08
2017-10-15T10:24:57.144Z,99105.88
2017-10-15T10:27:24.672Z,99111.38
2017-10-15T10:29:52.206Z,99106.28
2017-10-15T10:32:19.727Z,99106.14
2017-10-15T10:34:47.232Z,99099.00
2017-10-15T10:37:14.762Z,99097.63
2017-10-15T10:39:42.298Z,99091.20
2017-10-15T10:42:09.807Z,99085.11
2017-10-15T10:44:37.329Z,99086.53
2017-10-15T10:47:04.870Z,99086.82
2017-10-15T10:49:32.416Z,99088.88
2017-10-15T10:51:59.926Z,99085.63
2017-10-15T10:54:27.434Z,99083.93
2017-10-15T10:56:54.951Z,99079.84
2017-10-15T10:59:22.458Z,99074.27
2017-10-15T11:01:49.972Z,99072.59
2017-10-15T11:04:17.516Z,99075.23
2017-10-15T11:06:45.016Z,99071.02
2017-10-15T11:09:12.516Z,99065.88
2017-10-15T11:11:40.231Z,99055.31
2017-10-15T11:14:07.736Z,99064.63
2017-10-15T11:16:35.261Z,99058.16
2017-10-15T11:19:02.781Z,99060.70
2017-10-15T11:21:30.287Z,99054.97
2017-10-15T11:23:57.789Z,99051.14
2017-10-15T11:26:25.295Z,99051.22
2017-10-15T11:28:52.826Z,99046.50
2017-10-15T11:31:20.343Z,99045.18
2017-10-15T11:33:47.855Z,99040.41
2017-10-15T11:36:15.490Z,99035.27
2017-10-15T11:38:43.614Z,99039.23
2017-10-15T11:41:11.171Z,99036.37
2017-10-15T11:43:38.730Z,99031.11
2017-10-15T11:46:06.226Z,99032.30
2017-10-15T11:48:33.723Z,99024.17
2017-10-15T11:51:01.279Z,99024.07
2017-10-15T11:53:28.812Z,99019.16
2017-10-15T11:55:56.331Z,99016.06
2017-10-15T11:58:23.873Z,99007.58
2017-10-15T12:00:51.387Z,99001.20
2017-10-15T12:03:18.889Z,99001.00
2017-10-15T12:05:46.402Z,98995.08
2017-10-15T12:08:13.914Z,98993.66
2017-10-15T12:10:41.414Z,98992.23
2017-10-15T12:13:08.923Z,98984.08
2017-10-15T12:15:36.550Z,98993.59
2017-10-15T12:18:04.050Z,98986.88
2017-10-15T12:20:31.548Z,98983.80
2017-10-15T12:22:59.065Z,98984.80
2017-10-15T12:25:26.656Z,98977.92
2017-10-15T12:27:54.181Z,98970.33
2017-10-15T12:30:21.701Z,98966.95
2017-10-15T12:32:49.204Z,98961.19
2017-10-15T12:35:16.720Z,98964.83
2017-10-15T12:37:44.232Z,98962.51
2017-10-15T12:40:11.755Z,98960.09
2017-10-15T12:42:39.261Z,98956.34
2017-10-15T12:45:06.783Z,98953.67
2017-10-15T12:47:34.322Z,98956.10
2017-10-15T12:50:01.830Z,98953.78
2017-10-15T12:52:29.331Z,98955.98
2017-10-15T12:54:56.856Z,98950.53
2017-10-15T12:57:24.381Z,98950.99
2017-10-15T12:59:51.903Z,98945.16
2017-10-15T13:02:19.397Z,98952.55
2017-10-15T13:04:46.908Z,98947.45
2017-10-15T13:07:14.434Z,98942.02
2017-10-15T13:09:41.961Z,98942.59
2017-10-15T13:12:09.471Z,98939.78
2017-10-15T13:14:36.988Z,98927.13
2017-10-15T13:17:04.531Z,98931.59
2017-10-15T13:19:32.050Z,98929.34
2017-10-15T13:21:59.577Z,98927.80
2017-10-15T13:24:27.151Z,98923.36
2017-10-15T13:26:54.671Z,98927.35
2017-10-15T13:29:22.191Z,98929.17
2017-10-15T13:31:49.701Z,98925.02
2017-10-15T13:34:17.221Z,98919.73
2017-10-15T13:36:44.724Z,98918.19
2017-10-15T13:39:12.242Z,98908.25
2017-10-15T13:41:39.813Z,98917.63
2017-10-15T13:44:07.323Z,98918.63
2017-10-15T13:46:34.829Z,98914.07
2017-10-15T13:49:02.363Z,98909.19
2017-10-15T13:51:29.892Z,98907.73
2017-10-15T13:53:57.410Z,98912.47
2017-10-15T13:56:24.946Z,98913.50
2017-10-15T13:58:52.455Z,98903.23
2017-10-15T14:01:19.963Z,98901.77
2017-10-15T14:03:47.500Z,98899.81
2017-10-15T14:06:15.018Z,98901.55
2017-10-15T14:08:42.546Z,98901.08
2017-10-15T14:11:10.076Z,98893.18
2017-10-15T14:13:37.592Z,98892.11
2017-10-15T14:16:05.090Z,98887.34
2017-10-15T14:18:32.627Z,98885.83
2017-10-15T14:21:00.163Z,98885.64
2017-10-15T14:23:27.672Z,98880.14
2017-10-15T14:25:55.176Z,98878.90
2017-10-15T14:28:22.677Z,98874.54
2017-10-15T14:30:50.200Z,98878.08
2017-10-15T14:33:17.717Z,98870.64
2017-10-15T14:35:45.267Z,98874.66
2017-10-15T14:38:12.768Z,98870.41
2017-10-15T14:40:40.301Z,98873.03
2017-10-15T14:43:07.818Z,98873.39
2017-10-15T14:45:36.068Z,98869.54
2017-10-15T14:48:03.610Z,98862.59
2017-10-15T14:50:31.151Z,98860.36
2017-10-15T14:52:58.767Z,98865.16
2017-10-15T14:55:26.306Z,98862.15
2017-10-15T14:57:53.816Z,98858.48
2017-10-15T15:00:21.338Z,98853.09
2017-10-15T15:02:48.856Z,98857.96
2017-10-15T15:05:16.404Z,98852.94
2017-10-15T15:07:43.912Z,98846.54
2017-10-15T15:10:11.432Z,98843.80
2017-10-15T15:12:38.977Z,98842.08
2017-10-15T15:15:06.500Z,98840.61
2017-10-15T15:17:34.335Z,98840.77
2017-10-15T15:20:01.867Z,98845.64
2017-10-15T15:22:29.413Z,98839.44
2017-10-15T15:24:56.953Z,98842.35
2017-10-15T15:27:24.476Z,98838.62
2017-10-15T15:29:51.989Z,98838.27
2017-10-15T15:32:19.512Z,98840.73
2017-10-15T15:34:47.043Z,98841.50
2017-10-15T15:37:14.574Z,98844.64
2017-10-15T15:39:42.087Z,98839.86
2017-10-15T15:42:09.600Z,98838.52
2017-10-15T15:44:40.211Z,98840.31
2017-10-15T15:47:07.749Z,98834.41
2017-10-15T15:49:35.299Z,98832.31
2017-10-15T15:52:02.823Z,98837.45
2017-10-15T15:54:30.335Z,98843.86
2017-10-15T15:56:57.876Z,98843.83
2017-10-15T15:59:25.406Z,98842.10
2017-10-15T16:01:52.947Z,98843.12
2017-10-15T16:04:20.462Z,98838.66
2017-10-15T16:06:47.982Z,98840.23
2017-10-15T16:09:15.519Z,98842.99
2017-10-15T16:11:43.030Z,98845.08
2017-10-15T16:14:10.556Z,98840.73
2017-10-15T16:16:38.076Z,98841.08
2017-10-15T16:19:05.599Z,98847.50
2017-10-15T16:21:33.115Z,98841.96
2017-10-15T16:24:00.652Z,98845.02
2017-10-15T16:26:28.188Z,98841.91
2017-10-15T16:28:55.752Z,98849.05
2017-10-15T16:31:23.287Z,98846.33
2017-10-15T16:33:50.795Z,98844.34
2017-10-15T16:36:18.337Z,98853.76
2017-10-15T16:38:45.967Z,98850.22
2017-10-15T16:41:13.487Z,98854.78
2017-10-15T16:43:41.051Z,98858.50
2017-10-15T16:46:08.917Z,98861.11
2017-10-15T16:48:36.437Z,98856.84
2017-10-15T16:51:04.093Z,98864.02
2017-10-15T16:53:31.596Z,98857.63
2017-10-15T16:55:59.212Z,98860.00
2017-10-15T16:58:26.739Z,98863.93
2017-10-15T17:00:54.263Z,98865.51
2017-10-15T17:03:21.788Z,98867.05
2017-10-15T17:05:49.303Z,98869.55
2017-10-15T17:08:16.856Z,98867.77
2017-10-15T17:10:44.374Z,98868.86
2017-10-15T17:13:11.901Z,98867.15
2017-10-15T17:15:39.423Z,98864.23
2017-10-15T17:18:06.953Z,98868.68
2017-10-15T17:20:34.486Z,98872.81
2017-10-15T17:23:02.013Z,98880.22
2017-10-15T17:25:29.569Z,98871.12
2017-10-15T17:27:57.115Z,98876.41
2017-10-15T17:30:24.623Z,98874.78
2017-10-15T17:32:52.147Z,98875.34
2017-10-15T17:35:19.675Z,98890.34
2017-10-15T17:37:47.200Z,98884.94
2017-10-15T17:40:14.770Z,98889.88
2017-10-15T17:42:42.283Z,98886.68
2017-10-15T17:45:09.831Z,98895.42
2017-10-15T17:47:37.339Z,98898.05
2017-10-15T17:50:04.856Z,98891.28
2017-10-15T17:52:32.371Z,98891.48
2017-10-15T17:54:59.946Z,98894.23
2017-10-15T17:57:27.471Z,98893.17
2017-10-15T17:59:54.997Z,98898.55
2017-10-15T18:02:28.641Z,98899.44
2017-10-15T18:04:56.155Z,98900.23
2017-10-15T18:07:23.708Z,98903.78
2017-10-15T18:09:51.252Z,98909.67
2017-10-15T18:12:18.815Z,98915.02
2017-10-15T18:14:46.420Z,98913.09
2017-10-15T18:17:13.921Z,98911.46
2017-10-15T18:19:41.474Z,98910.27
2017-10-15T18:22:09.004Z,98909.39
2017-10-15T18:24:36.577Z,98904.78
2017-10-15T18:27:04.112Z,98906.98
2017-10-15T18:29:31.641Z,98899.41
2017-10-15T18:31:59.217Z,98908.63
2017-10-15T18:34:26.889Z,98902.88
2017-10-15T18:36:54.454Z,98901.13
2017-10-15T18:39:22.054Z,98901.14
2017-10-15T18:41:49.754Z,98897.89
2017-10-15T18:44:17.334Z,98901.63
2017-10-15T18:46:45.195Z,98902.89
2017-10-15T18:49:13.069Z,98910.05
2017-10-15T18:51:41.030Z,98903.34
2017-10-15T18:54:08.998Z,98906.41
2017-10-15T18:56:36.967Z,98905.80
2017-10-15T18:59:04.937Z,98910.41
2017-10-15T19:01:33.006Z,98912.48
2017-10-15T19:04:00.977Z,98912.78
2017-10-15T19:06:28.946Z,98918.51
2017-10-15T19:08:57.018Z,98918.38
2017-10-15T19:11:24.982Z,98917.55
2017-10-15T19:13:52.951Z,98917.96
2017-10-15T19:16:21.022Z,98923.62
2017-10-15T19:18:49.194Z,98916.06
2017-10-15T19:21:17.193Z,98919.66
2017-10-15T19:23:45.308Z,98919.56
2017-10-15T19:26:13.202Z,98914.56
2017-10-15T19:28:41.273Z,98917.58
2017-10-15T19:31:09.240Z,98915.50
2017-10-15T19:33:37.313Z,98914.88
2017-10-15T19:36:05.394Z,98909.70
2017-10-15T19:38:33.457Z,98911.91
2017-10-15T19:41:01.423Z,98912.18
2017-10-15T19:43:29.499Z,98909.16
2017-10-15T19:45:57.361Z,98911.79
2017-10-15T19:48:25.322Z,98915.20
2017-10-15T19:50:53.400Z,98919.46
2017-10-15T19:53:21.265Z,98920.48
2017-10-15T19:55:49.130Z,98917.56
2017-10-15T19:58:17.000Z,98929.96
2017-10-15T20:00:45.275Z,98930.66
2017-10-15T20:03:12.933Z,98928.14
2017-10-15T20:05:40.487Z,98936.38
2017-10-15T20:08:08.033Z,98932.97
2017-10-15T20:10:35.539Z,98935.24
2017-10-15T20:13:03.066Z,98931.52
2017-10-15T20:15:30.574Z,98939.17
2017-10-15T20:17:58.101Z,98940.50
2017-10-15T20:20:25.641Z,98941.97
2017-10-15T20:22:53.167Z,98947.55
2017-10-15T20:25:20.688Z,98938.55
2017-10-15T20:27:49.548Z,98945.20
2017-10-15T20:30:17.071Z,98940.95
2017-10-15T20:32:44.606Z,98943.80
2017-10-15T20:35:12.152Z,98945.84
2017-10-15T20:37:39.662Z,98944.20
2017-10-15T20:40:07.166Z,98944.45
2017-10-15T20:42:34.700Z,98939.05
2017-10-15T20:45:02.212Z,98934.98
2017-10-15T20:47:29.736Z,98944.84
2017-10-15T20:49:57.276Z,98941.34
2017-10-15T20:52:26.063Z,98940.28
2017-10-15T20:54:53.639Z,98946.69
2017-10-15T20:57:21.143Z,98947.64
2017-10-15T20:59:48.691Z,98950.60
2017-10-15T21:02:16.232Z,98942.78
2017-10-15T21:04:43.751Z,98946.02
2017-10-15T21:07:11.274Z,98951.28
2017-10-15T21:09:38.807Z,98954.53
2017-10-15T21:12:06.351Z,98955.85
2017-10-15T21:14:33.855Z,98957.06
2017-10-15T21:17:01.366Z,98958.30
2017-10-15T21:19:28.897Z,98964.91
2017-10-15T21:21:56.429Z,98971.39
2017-10-15T21:24:23.957Z,98973.95
2017-10-15T21:26:51.573Z,98978.66
2017-10-15T21:29:19.100Z,98975.31
2017-10-15T21:31:46.677Z,98981.27
2017-10-15T21:34:14.194Z,98982.15
2017-10-15T21:36:41.703Z,98984.33
2017-10-15T21:39:09.220Z,98984.22
2017-10-15T21:41:36.728Z,98985.70
2017-10-15T21:44:04.230Z,98984.59
2017-10-15T21:46:31.752Z,98990.64
2017-10-15T21:48:59.262Z,98986.47
2017-10-15T21:51:26.759Z,98986.61
2017-10-15T21:53:54.280Z,98995.52
2017-10-15T21:56:21.808Z,98986.06
2017-10-15T21:58:49.332Z,98993.59
2017-10-15T22:01:16.841Z,98985.77
2017-10-15T22:03:44.380Z,98983.55
2017-10-15T22:06:11.915Z,98995.67
2017-10-15T22:08:39.418Z,98997.19
2017-10-15T22:11:06.944Z,98997.19
2017-10-15T22:13:34.463Z,99003.48
2017-10-15T22:16:01.999Z,99004.84
2017-10-15T22:18:35.059Z,99006.36
2017-10-15T22:21:08.171Z,99009.10
2017-10-15T22:23:35.697Z,99005.81
2017-10-15T22:26:03.226Z,99004.16
2017-10-15T22:28:30.761Z,99008.20
2017-10-15T22:30:58.297Z,99006.98
2017-10-15T22:33:25.837Z,99002.78
2017-10-15T22:35:53.348Z,99003.75
2017-10-15T22:38:20.857Z,99005.72
2017-10-15T22:40:48.380Z,98998.75
2017-10-15T22:43:15.885Z,99002.67
2017-10-15T22:45:43.411Z,99007.33
2017-10-15T22:48:10.930Z,99014.39
2017-10-15T22:50:38.422Z,99014.41
2017-10-15T22:53:05.930Z,99003.34
2017-10-15T22:55:33.434Z,99012.00
2017-10-15T22:58:00.973Z,99006.29
2017-10-15T23:00:28.607Z,99006.20
2017-10-15T23:02:56.146Z,99002.48
2017-10-15T23:05:23.655Z,99007.19
2017-10-15T23:07:51.177Z,98999.87
2017-10-15T23:10:18.678Z,98997.17
2017-10-15T23:12:46.175Z,99001.49
2017-10-15T23:15:13.684Z,99003.14
2017-10-15T23:17:41.195Z,99010.48
2017-10-15T23:20:08.707Z,99010.42
2017-10-15T23:22:36.216Z,99015.73
2017-10-15T23:25:03.731Z,99014.50
2017-10-15T23:27:31.254Z,99009.96
2017-10-15T23:29:58.765Z,99011.20
2017-10-15T23:32:26.271Z,99014.91
2017-10-15T23:34:53.782Z,99017.67
2017-10-15T23:37:21.282Z,99019.64
2017-10-15T23:39:48.778Z,99025.22
2017-10-15T23:42:16.279Z,99026.02
2017-10-15T23:44:43.787Z,99024.25
2017-10-15T23:47:11.290Z,99021.86
2017-10-15T23:49:38.800Z,99034.85
2017-10-15T23:52:06.315Z,99020.25
2017-10-15T23:54:33.839Z,99035.63
2017-10-15T23:57:01.343Z,99033.91
2017-10-15T23:59:28.875Z,99034.50
